Time;durP1;ratioP1;P1;durP2;ratioP2;P2;SDS_P1;SDS_P2;PMS_P1;PMS_P2;Temp;Humidity;BMP_temperature;BMP_pressure;BME280_temperature;BME280_humidity;BME280_pressure;Samples;Min_cycle;Max_cycle;Signal;HPM_P1;HPM_P2
2023/06/24 00:01:19;;;;;;;14.82;9.60;;;;;;;19.20;67.74;102477.69;7393258;19;20531;-67
2023/06/24 00:03:47;;;;;;;15.80;10.20;;;;;;;19.15;67.63;102478.03;7391724;19;20025;-67
2023/06/24 00:06:18;;;;;;;16.73;9.38;;;;;;;19.18;67.71;102479.63;7391576;19;20034;-60
2023/06/24 00:08:46;;;;;;;16.67;10.45;;;;;;;19.13;67.81;102490.75;7391081;19;20023;-62
2023/06/24 00:11:14;;;;;;;18.73;10.73;;;;;;;19.17;67.93;102486.84;7390404;19;20026;-60
2023/06/24 00:13:42;;;;;;;17.88;9.48;;;;;;;19.16;68.34;102489.66;7389923;19;20139;-63
2023/06/24 00:16:10;;;;;;;16.42;10.05;;;;;;;19.09;68.39;102477.72;7390989;19;20086;-63
2023/06/24 00:18:41;;;;;;;16.58;10.13;;;;;;;19.05;68.75;102479.81;7391302;19;20086;-63
2023/06/24 00:21:08;;;;;;;20.13;11.48;;;;;;;18.99;68.91;102477.59;7390043;19;20039;-62
2023/06/24 00:23:35;;;;;;;16.33;10.77;;;;;;;18.85;69.28;102489.50;7391200;19;20497;-62
2023/06/24 00:26:03;;;;;;;17.35;11.00;;;;;;;18.97;68.88;102484.97;7391152;19;20035;-62
2023/06/24 00:28:30;;;;;;;17.58;10.50;;;;;;;18.97;68.86;102484.97;7390118;19;20018;-62
2023/06/24 00:30:57;;;;;;;17.23;10.93;;;;;;;18.89;69.40;102496.31;7389984;19;20511;-63
2023/06/24 00:33:24;;;;;;;16.88;9.38;;;;;;;18.86;69.95;102482.28;7391443;19;20014;-68
2023/06/24 00:35:52;;;;;;;16.70;10.38;;;;;;;18.62;70.87;102480.59;7390721;19;20038;-67
2023/06/24 00:38:19;;;;;;;18.83;12.40;;;;;;;18.65;70.88;102484.84;7390833;19;20022;-68
2023/06/24 00:40:46;;;;;;;16.48;11.00;;;;;;;18.67;70.59;102481.06;7388070;19;20095;-67
2023/06/24 00:43:13;;;;;;;16.50;10.45;;;;;;;18.60;71.06;102482.53;7391286;19;20018;-67
2023/06/24 00:45:41;;;;;;;16.48;11.20;;;;;;;18.50;71.28;102476.19;7389836;19;20123;-67
2023/06/24 00:48:08;;;;;;;18.25;11.05;;;;;;;18.40;71.34;102480.59;7391171;19;20025;-67
2023/06/24 00:50:37;;;;;;;18.13;11.10;;;;;;;18.45;71.55;102476.53;7389648;19;20035;-67
2023/06/24 00:53:04;;;;;;;16.05;10.65;;;;;;;18.45;71.57;102476.53;7390822;19;20014;-67
2023/06/24 00:55:31;;;;;;;18.10;10.90;;;;;;;18.44;71.62;102482.06;7390005;19;20047;-68
2023/06/24 00:58:01;;;;;;;15.27;9.88;;;;;;;18.39;71.65;102486.91;7391078;19;20034;-68
2023/06/24 01:00:28;;;;;;;16.63;10.35;;;;;;;18.18;72.67;102486.78;7389326;19;20018;-68
2023/06/24 01:02:57;;;;;;;17.60;11.20;;;;;;;17.92;73.68;102486.13;7390878;19;20033;-68
2023/06/24 01:05:26;;;;;;;16.67;10.40;;;;;;;18.07;73.42;102478.72;7389750;19;20052;-68
2023/06/24 01:07:55;;;;;;;15.50;10.38;;;;;;;18.19;72.95;102481.28;7389598;19;20491;-69
2023/06/24 01:10:24;;;;;;;16.83;11.90;;;;;;;18.09;72.92;102482.16;7388797;19;20124;-68
2023/06/24 01:12:51;;;;;;;18.90;11.57;;;;;;;17.87;74.00;102497.19;7390006;19;20046;-68
2023/06/24 01:15:22;;;;;;;17.20;10.57;;;;;;;18.00;73.82;102487.22;7389910;19;20015;-68
2023/06/24 01:18:03;;;;;;;14.95;10.30;;;;;;;18.09;73.39;102483.00;7389563;19;20039;-59
2023/06/24 01:20:40;;;;;;;15.27;9.77;;;;;;;17.95;73.74;102493.94;7388774;19;20025;-58
2023/06/24 01:23:14;;;;;;;14.98;9.77;;;;;;;17.89;73.91;102497.06;7390004;19;20019;-66
2023/06/24 01:25:47;;;;;;;17.45;11.07;;;;;;;17.73;74.72;102498.22;7388868;19;20034;-66
2023/06/24 01:28:20;;;;;;;15.50;11.32;;;;;;;17.72;74.89;102495.66;7389726;19;20092;-66
2023/06/24 01:31:09;;;;;;;17.77;10.25;;;;;;;17.83;74.87;102494.88;7388413;19;20026;-66
2023/06/24 01:33:48;;;;;;;14.93;10.15;;;;;;;17.92;74.55;102489.66;7389793;19;20023;-66
2023/06/24 01:36:18;;;;;;;16.25;10.25;;;;;;;17.99;73.90;102482.84;7392456;19;20035;-63
2023/06/24 01:38:51;;;;;;;15.82;10.25;;;;;;;17.90;73.76;102496.13;7397446;19;20074;-63
2023/06/24 01:41:24;;;;;;;14.23;9.75;;;;;;;17.93;74.47;102482.47;7396921;19;20499;-64
2023/06/24 01:43:53;;;;;;;16.20;9.85;;;;;;;18.02;73.87;102487.97;7396947;19;20046;-63
2023/06/24 01:46:23;;;;;;;15.27;10.27;;;;;;;17.86;74.23;102490.13;7396315;19;20021;-64
2023/06/24 01:48:55;;;;;;;13.43;9.32;;;;;;;17.90;74.64;102498.81;7395555;19;20019;-62
2023/06/24 01:51:24;;;;;;;12.82;9.00;;;;;;;17.93;74.12;102494.06;7394837;19;20035;-58
2023/06/24 01:54:04;;;;;;;13.30;8.82;;;;;;;17.96;73.72;102493.81;7396562;19;20047;-59
2023/06/24 01:56:34;;;;;;;12.93;9.18;;;;;;;17.98;72.80;102493.69;7395373;19;20035;-59
2023/06/24 01:59:04;;;;;;;17.08;9.32;;;;;;;17.93;73.09;102493.19;7396210;19;20497;-60
2023/06/24 02:01:33;;;;;;;12.82;8.65;;;;;;;17.96;73.18;102484.91;7396424;19;20034;-59
2023/06/24 02:04:02;;;;;;;15.07;9.30;;;;;;;17.86;73.48;102486.59;7396421;19;20014;-59
2023/06/24 02:06:30;;;;;;;14.00;8.93;;;;;;;17.84;73.75;102483.19;7395555;19;20468;-59
2023/06/24 02:09:00;;;;;;;14.07;8.95;;;;;;;17.77;73.63;102485.47;7394426;19;20025;-59
2023/06/24 02:11:31;;;;;;;14.88;9.18;;;;;;;17.77;74.17;102488.16;7396069;19;20090;-59
2023/06/24 02:14:01;;;;;;;14.45;9.13;;;;;;;17.76;74.04;102487.28;7396717;19;20022;-59
2023/06/24 02:16:29;;;;;;;14.38;9.65;;;;;;;17.71;73.92;102488.59;7395307;19;20019;-59
2023/06/24 02:18:57;;;;;;;13.77;8.77;;;;;;;17.67;74.46;102485.31;7395865;19;20014;-59
2023/06/24 02:21:25;;;;;;;14.43;9.10;;;;;;;17.76;73.88;102486.44;7395178;19;20022;-59
2023/06/24 02:23:53;;;;;;;13.45;8.90;;;;;;;17.83;73.68;102481.47;7394291;19;20018;-60
2023/06/24 02:26:22;;;;;;;16.23;10.27;;;;;;;17.84;73.38;102488.53;7393486;19;20019;-59
2023/06/24 02:28:50;;;;;;;13.70;9.05;;;;;;;17.57;74.68;102491.47;7394646;19;20018;-59
2023/06/24 02:31:17;;;;;;;13.38;9.23;;;;;;;17.34;75.53;102485.16;7393978;19;20034;-59
2023/06/24 02:33:45;;;;;;;13.52;9.32;;;;;;;17.28;75.88;102489.13;7395681;19;20025;-60
2023/06/24 02:36:12;;;;;;;14.40;9.23;;;;;;;17.21;76.37;102493.25;7394444;19;20036;-59
2023/06/24 02:38:40;;;;;;;13.35;8.50;;;;;;;17.17;76.40;102494.44;7395225;19;20029;-64
2023/06/24 02:41:07;;;;;;;13.77;9.18;;;;;;;17.14;76.83;102490.19;7391016;19;20056;-64
2023/06/24 02:43:36;;;;;;;13.48;9.60;;;;;;;17.23;76.71;102494.84;7393033;19;20499;-64
2023/06/24 02:46:06;;;;;;;13.85;10.25;;;;;;;17.28;76.65;102494.50;7393725;19;20776;-65
2023/06/24 02:48:36;;;;;;;14.90;9.77;;;;;;;17.48;75.94;102491.19;7393880;19;20035;-65
2023/06/24 02:51:06;;;;;;;14.82;10.55;;;;;;;17.38;76.09;102492.84;7392535;19;20023;-66
2023/06/24 02:53:34;;;;;;;14.93;11.23;;;;;;;17.44;75.70;102494.22;7394610;19;20022;-65
2023/06/24 02:56:03;;;;;;;13.60;9.68;;;;;;;17.47;75.99;102500.19;7392788;19;20022;-60
2023/06/24 02:58:31;;;;;;;14.68;10.38;;;;;;;17.45;76.16;102499.47;7395212;19;20047;-65
2023/06/24 03:01:00;;;;;;;15.93;9.85;;;;;;;17.45;75.91;102493.25;7392009;19;20090;-63
2023/06/24 03:03:28;;;;;;;15.38;10.30;;;;;;;17.64;75.56;102501.59;7393105;19;20018;-60
2023/06/24 03:05:59;;;;;;;15.98;10.60;;;;;;;17.68;75.12;102500.41;7391476;19;20434;-61
2023/06/24 03:08:27;;;;;;;15.68;11.50;;;;;;;17.53;75.91;102506.91;7394464;19;20551;-62
2023/06/24 03:10:58;;;;;;;17.52;12.18;;;;;;;17.34;76.67;102503.91;7390475;19;20019;-62
2023/06/24 03:13:26;;;;;;;17.20;11.73;;;;;;;17.25;77.15;102510.81;7392761;19;20333;-58
2023/06/24 03:15:53;;;;;;;13.50;10.70;;;;;;;17.42;76.64;102514.91;7392666;19;20023;-58
2023/06/24 03:18:20;;;;;;;15.75;11.05;;;;;;;17.51;75.80;102517.75;7392895;19;20014;-58
2023/06/24 03:20:47;;;;;;;14.73;10.23;;;;;;;17.41;76.75;102524.75;7390263;19;20490;-58
2023/06/24 03:23:15;;;;;;;16.67;11.07;;;;;;;17.58;75.93;102525.31;7393515;19;20046;-58
2023/06/24 03:25:42;;;;;;;13.93;9.75;;;;;;;17.68;75.38;102521.84;7392892;19;20026;-58
2023/06/24 03:28:09;;;;;;;15.43;9.93;;;;;;;17.72;75.27;102522.47;7391260;19;20023;-58
2023/06/24 03:30:37;;;;;;;14.30;10.35;;;;;;;17.77;75.14;102526.50;7389802;19;20047;-65
2023/06/24 03:33:04;;;;;;;15.32;9.60;;;;;;;17.60;75.70;102520.72;7392755;19;20039;-63
2023/06/24 03:35:32;;;;;;;14.52;9.98;;;;;;;17.51;76.50;102527.59;7392748;19;20142;-64
2023/06/24 03:38:00;;;;;;;14.63;9.85;;;;;;;17.49;76.59;102526.88;7392818;19;20019;-64
2023/06/24 03:40:28;;;;;;;14.75;9.70;;;;;;;17.50;76.55;102525.88;7391548;19;20475;-64
2023/06/24 03:42:55;;;;;;;17.23;10.63;;;;;;;17.57;76.10;102528.97;7392426;19;20044;-64
2023/06/24 03:45:22;;;;;;;13.88;9.77;;;;;;;17.71;75.64;102535.00;7392843;19;20094;-67
2023/06/24 03:47:49;;;;;;;15.75;9.88;;;;;;;17.77;75.60;102533.72;7392156;19;20038;-66
2023/06/24 03:50:17;;;;;;;14.60;10.15;;;;;;;17.80;75.40;102540.66;7391154;19;20014;-64
2023/06/24 03:52:44;;;;;;;16.60;10.35;;;;;;;17.82;75.47;102538.72;7392732;19;20050;-64
2023/06/24 03:55:12;;;;;;;15.13;9.88;;;;;;;17.87;75.18;102539.25;7392547;19;20023;-64
2023/06/24 03:57:39;;;;;;;16.17;10.80;;;;;;;17.78;75.79;102530.94;7388857;19;20029;-64
2023/06/24 04:00:15;;;;;;;16.00;11.00;;;;;;;17.73;75.77;102541.09;7389677;19;20026;-64
2023/06/24 04:02:43;;;;;;;15.10;10.52;;;;;;;17.71;75.51;102535.00;7392096;19;20022;-72
2023/06/24 04:05:11;;;;;;;15.32;10.38;;;;;;;17.83;75.21;102533.25;7392217;19;20022;-72
2023/06/24 04:07:39;;;;;;;15.23;9.93;;;;;;;17.87;75.22;102536.56;7391247;19;20029;-72
2023/06/24 04:10:08;;;;;;;16.10;10.95;;;;;;;17.85;75.51;102538.47;7389677;19;20022;-71
2023/06/24 04:12:35;;;;;;;14.88;10.60;;;;;;;17.85;75.17;102533.13;7392230;19;20018;-71
2023/06/24 04:15:04;;;;;;;15.60;10.70;;;;;;;17.96;75.11;102547.41;7392130;19;20019;-70
2023/06/24 04:17:32;;;;;;;15.93;10.32;;;;;;;17.93;74.96;102544.13;7391006;19;20015;-70
2023/06/24 04:19:59;;;;;;;16.02;11.13;;;;;;;17.82;75.59;102547.63;7389013;19;20082;-71
2023/06/24 04:22:27;;;;;;;17.30;11.52;;;;;;;17.93;75.40;102555.72;7391553;19;20031;-70
2023/06/24 04:24:54;;;;;;;16.30;10.93;;;;;;;17.98;75.10;102553.53;7391495;19;20085;-70
2023/06/24 04:27:21;;;;;;;15.68;10.82;;;;;;;18.01;74.72;102544.41;7390527;19;20022;-70
2023/06/24 04:29:48;;;;;;;18.83;11.50;;;;;;;18.07;74.50;102543.91;7390446;19;20014;-70
2023/06/24 04:32:15;;;;;;;17.58;11.73;;;;;;;18.03;74.71;102542.44;7391140;19;20095;-70
2023/06/24 04:34:43;;;;;;;15.95;11.05;;;;;;;18.05;74.70;102545.00;7391823;19;20010;-70
2023/06/24 04:37:10;;;;;;;16.65;11.30;;;;;;;18.02;74.73;102546.09;7390832;19;20035;-70
2023/06/24 04:39:38;;;;;;;15.65;10.88;;;;;;;17.98;75.26;102548.16;7390963;19;20010;-70
2023/06/24 04:42:05;;;;;;;15.20;10.90;;;;;;;18.05;74.93;102545.88;7389769;19;20014;-70
2023/06/24 04:44:32;;;;;;;14.88;10.27;;;;;;;18.13;74.72;102553.34;7390653;19;20234;-70
2023/06/24 04:47:00;;;;;;;17.75;10.95;;;;;;;18.11;74.49;102550.75;7390462;19;20113;-70
2023/06/24 04:49:28;;;;;;;15.35;10.70;;;;;;;18.03;75.12;102553.16;7389873;19;20021;-70
2023/06/24 04:51:55;;;;;;;16.88;10.25;;;;;;;18.03;74.93;102550.50;7389941;19;20019;-70
2023/06/24 04:54:22;;;;;;;14.82;10.27;;;;;;;18.08;74.95;102547.44;7391045;19;20528;-71
2023/06/24 04:56:50;;;;;;;15.68;10.07;;;;;;;18.14;74.43;102550.53;7390211;19;20073;-71
2023/06/24 04:59:17;;;;;;;18.35;10.90;;;;;;;18.17;74.53;102544.94;7389488;19;20021;-61
2023/06/24 05:01:45;;;;;;;16.80;9.90;;;;;;;18.25;73.95;102541.66;7390433;19;20499;-61
2023/06/24 05:04:12;;;;;;;16.63;11.38;;;;;;;18.16;74.67;102540.53;7389862;19;20022;-61
2023/06/24 05:06:39;;;;;;;17.60;11.13;;;;;;;18.21;74.43;102532.13;7387744;19;20606;-61
2023/06/24 05:09:06;;;;;;;18.10;10.55;;;;;;;18.31;74.26;102533.09;7389733;19;20035;-64
2023/06/24 05:11:34;;;;;;;15.50;10.35;;;;;;;18.32;73.88;102531.31;7397234;19;20059;-63
2023/06/24 05:14:01;;;;;;;17.02;10.43;;;;;;;18.22;74.45;102526.63;7396155;19;20370;-71
2023/06/24 05:16:28;;;;;;;13.10;9.45;;;;;;;18.33;73.93;102531.19;7397160;19;20015;-78
2023/06/24 05:24:45;;;;;;;13.63;9.15;;;;;;;18.34;73.77;102527.50;7397025;19;20088;-74
2023/06/24 05:27:12;;;;;;;13.70;9.27;;;;;;;18.36;73.78;102532.78;7397456;19;20027;-75
2023/06/24 05:29:40;;;;;;;15.60;9.65;;;;;;;18.42;74.01;102540.31;7394611;19;20028;-68
2023/06/24 05:32:07;;;;;;;14.98;9.63;;;;;;;18.57;73.18;102536.44;7395745;19;20010;-71
2023/06/24 05:34:35;;;;;;;16.08;9.93;;;;;;;18.58;73.25;102529.22;7397094;19;20023;-76
2023/06/24 05:37:02;;;;;;;15.05;9.95;;;;;;;18.62;73.20;102522.63;7396471;19;20495;-75
2023/06/24 05:39:31;;;;;;;17.83;10.20;;;;;;;18.59;73.03;102522.91;7394465;19;20019;-71
2023/06/24 05:41:58;;;;;;;17.60;10.27;;;;;;;18.59;73.70;102521.06;7395749;19;20103;-69
2023/06/24 05:44:25;;;;;;;13.25;9.57;;;;;;;18.70;73.13;102514.84;7396919;19;20035;-66
2023/06/24 05:46:53;;;;;;;11.65;8.15;;;;;;;18.74;72.68;102516.34;7396077;19;20019;-62
2023/06/24 05:49:20;;;;;;;13.60;9.60;;;;;;;18.73;73.12;102514.63;7396533;19;20193;-61
2023/06/24 05:51:47;;;;;;;13.43;8.80;;;;;;;18.76;72.74;102514.38;7395497;19;20014;-61
2023/06/24 05:54:14;;;;;;;15.52;8.80;;;;;;;18.80;72.69;102515.00;7396267;19;20043;-70
2023/06/24 05:56:42;;;;;;;12.00;8.77;;;;;;;18.76;72.74;102511.69;7396498;19;20048;-70
2023/06/24 05:59:09;;;;;;;15.88;9.10;;;;;;;18.77;72.76;102512.53;7395880;19;20031;-65
2023/06/24 06:01:36;;;;;;;14.18;8.18;;;;;;;18.79;72.94;102515.97;7396427;19;20019;-66
2023/06/24 06:04:03;;;;;;;12.43;8.00;;;;;;;18.87;72.70;102519.75;7394314;19;20035;-66
2023/06/24 06:06:31;;;;;;;12.48;8.10;;;;;;;18.87;72.54;102522.44;7395757;19;20018;-66
2023/06/24 06:08:59;;;;;;;13.48;8.18;;;;;;;18.96;72.23;102523.50;7395605;19;20025;-65
2023/06/24 06:11:26;;;;;;;14.32;8.90;;;;;;;18.98;72.20;102524.25;7393246;19;20019;-66
2023/06/24 06:13:54;;;;;;;14.73;9.32;;;;;;;18.99;72.38;102536.69;7395412;19;20470;-66
2023/06/24 06:16:21;;;;;;;12.73;8.25;;;;;;;19.04;71.77;102537.19;7393986;19;20338;-66
2023/06/24 06:18:48;;;;;;;11.82;7.80;;;;;;;19.07;71.47;102542.28;7394390;19;20010;-64
2023/06/24 06:21:15;;;;;;;10.75;6.78;;;;;;;19.07;71.31;102553.03;7392032;19;20082;-68
2023/06/24 06:23:43;;;;;;;11.68;6.90;;;;;;;19.13;70.85;102554.38;7396042;19;20099;-68
2023/06/24 06:26:13;;;;;;;10.35;6.80;;;;;;;19.18;70.00;102555.69;7394401;19;20018;-67
2023/06/24 06:28:40;;;;;;;11.15;6.97;;;;;;;19.16;69.99;102554.97;7395263;19;20022;-67
2023/06/24 06:31:07;;;;;;;11.40;6.15;;;;;;;19.17;69.40;102554.00;7392601;19;20086;-67
2023/06/24 06:33:35;;;;;;;8.27;5.82;;;;;;;19.20;69.64;102556.44;7395032;19;20031;-67
2023/06/24 06:36:02;;;;;;;11.07;6.82;;;;;;;19.28;69.50;102553.13;7394499;19;20030;-68
2023/06/24 06:38:30;;;;;;;11.77;6.53;;;;;;;19.30;69.30;102559.22;7394897;19;20018;-70
2023/06/24 06:40:57;;;;;;;12.00;6.85;;;;;;;19.29;69.01;102560.19;7392943;19;20046;-68
2023/06/24 06:43:24;;;;;;;12.25;7.38;;;;;;;19.36;68.94;102565.94;7394746;19;20018;-67
2023/06/24 06:45:51;;;;;;;13.13;7.25;;;;;;;19.33;68.06;102552.75;7394231;19;20476;-67
2023/06/24 06:48:21;;;;;;;10.65;6.68;;;;;;;19.32;68.28;102554.56;7393561;19;20019;-67
2023/06/24 06:50:49;;;;;;;11.05;6.20;;;;;;;19.47;68.06;102555.16;7393153;19;20025;-67
2023/06/24 06:53:16;;;;;;;10.70;5.97;;;;;;;19.59;68.10;102556.81;7394925;19;20043;-68
2023/06/24 06:55:44;;;;;;;12.73;6.88;;;;;;;19.63;68.16;102557.44;7394033;19;20033;-68
2023/06/24 06:58:11;;;;;;;10.55;5.68;;;;;;;19.64;67.96;102560.00;7394875;19;20014;-68
2023/06/24 07:00:38;;;;;;;11.30;6.65;;;;;;;19.68;67.87;102556.06;7392506;19;20222;-67
2023/06/24 07:03:05;;;;;;;10.48;6.85;;;;;;;19.72;67.78;102556.66;7394332;19;20089;-68
2023/06/24 07:05:33;;;;;;;10.32;6.28;;;;;;;19.76;67.15;102554.56;7393999;19;20018;-67
2023/06/24 07:08:05;;;;;;;9.82;5.97;;;;;;;19.79;66.67;102554.31;7394549;19;20014;-68
2023/06/24 07:10:33;;;;;;;11.30;6.30;;;;;;;19.79;66.33;102562.38;7392457;19;20014;-66
2023/06/24 07:13:00;;;;;;;12.25;6.57;;;;;;;19.76;66.10;102557.25;7393675;19;20028;-67
2023/06/24 07:15:28;;;;;;;9.88;5.57;;;;;;;19.72;65.63;102557.50;7392236;19;20023;-66
2023/06/24 07:17:55;;;;;;;9.70;6.40;;;;;;;19.74;65.49;102562.78;7393172;19;20039;-66
2023/06/24 07:20:22;;;;;;;11.18;6.72;;;;;;;19.84;65.56;102554.78;7392122;19;20022;-66
2023/06/24 07:22:50;;;;;;;10.88;5.65;;;;;;;19.87;64.77;102565.28;7391845;19;20035;-63
2023/06/24 07:25:17;;;;;;;8.70;5.50;;;;;;;19.93;64.70;102560.25;7393245;19;20035;-64
2023/06/24 07:27:44;;;;;;;11.63;6.35;;;;;;;19.96;64.18;102559.13;7393021;19;20022;-64
2023/06/24 07:30:12;;;;;;;10.43;5.93;;;;;;;20.04;64.66;102562.03;7391665;19;20091;-64
2023/06/24 07:32:39;;;;;;;9.82;6.13;;;;;;;20.08;64.27;102558.09;7391065;19;20093;-64
2023/06/24 07:35:06;;;;;;;9.27;5.38;;;;;;;20.10;63.83;102555.25;7392861;19;20046;-67
2023/06/24 07:37:34;;;;;;;11.32;6.38;;;;;;;20.16;64.12;102549.38;7390896;19;20081;-78
2023/06/24 07:40:03;;;;;;;11.50;6.18;;;;;;;20.19;64.28;102562.56;7391742;19;20096;-74
2023/06/24 07:42:30;;;;;;;9.73;5.95;;;;;;;20.23;64.24;102561.31;7393081;19;20505;-70
2023/06/24 07:44:58;;;;;;;10.38;5.78;;;;;;;20.29;64.73;102565.28;7393377;19;20031;-63
2023/06/24 07:47:25;;;;;;;10.95;6.57;;;;;;;20.37;64.83;102558.25;7394957;19;20026;-70
2023/06/24 07:49:53;;;;;;;11.82;6.35;;;;;;;20.39;64.70;102558.13;7392120;19;20019;-75
2023/06/24 07:52:20;;;;;;;11.60;5.85;;;;;;;20.43;64.73;102555.03;7392458;19;20039;-70
2023/06/24 07:54:47;;;;;;;12.43;6.35;;;;;;;20.48;63.95;102561.84;7392358;19;20618;-74
2023/06/24 07:57:14;;;;;;;12.00;6.15;;;;;;;20.51;64.02;102556.25;7392124;19;20023;-75
2023/06/24 07:59:42;;;;;;;11.57;6.20;;;;;;;20.53;63.47;102552.44;7391971;19;20022;-72
2023/06/24 08:02:10;;;;;;;12.50;6.20;;;;;;;20.58;63.13;102555.56;7390479;19;20495;-77
2023/06/24 08:04:37;;;;;;;10.23;6.25;;;;;;;20.66;62.98;102558.44;7390942;19;20043;-77
2023/06/24 08:07:05;;;;;;;9.82;5.30;;;;;;;20.75;63.07;102561.31;7391931;19;20019;-77
2023/06/24 08:09:32;;;;;;;10.30;5.32;;;;;;;20.82;62.39;102557.09;7390054;19;20095;-71
2023/06/24 08:11:59;;;;;;;9.00;5.50;;;;;;;20.89;62.62;102552.88;7390363;19;20045;-78
2023/06/24 08:14:27;;;;;;;8.63;4.50;;;;;;;20.96;63.07;102551.34;7389357;19;20015;-77
2023/06/24 08:16:54;;;;;;;8.05;5.15;;;;;;;21.03;62.04;102544.41;7391082;19;20096;-77
2023/06/24 08:19:21;;;;;;;10.38;5.68;;;;;;;21.13;61.55;102550.66;7391472;19;20022;-76
2023/06/24 08:21:51;;;;;;;9.18;5.50;;;;;;;21.23;60.66;102547.16;7389091;19;20460;-74
2023/06/24 08:24:18;;;;;;;9.60;5.35;;;;;;;21.32;60.04;102541.75;7391230;19;20078;-74
2023/06/24 08:26:46;;;;;;;8.20;5.00;;;;;;;21.42;60.23;102542.66;7390801;19;20478;-74
2023/06/24 08:29:13;;;;;;;8.05;5.05;;;;;;;21.53;59.36;102551.63;7391644;19;20018;-74
2023/06/24 08:31:40;;;;;;;12.10;5.30;;;;;;;21.54;58.19;102543.38;7390234;19;20797;-74
2023/06/24 08:34:08;;;;;;;10.68;5.18;;;;;;;21.59;58.12;102542.94;7392153;19;20098;-74
2023/06/24 08:36:37;;;;;;;8.48;4.90;;;;;;;21.67;58.41;102543.09;7388564;19;20022;-73
2023/06/24 08:39:04;;;;;;;8.35;4.88;;;;;;;21.73;58.33;102547.94;7390933;19;20022;-74
2023/06/24 08:41:31;;;;;;;7.45;4.55;;;;;;;21.72;57.59;102548.94;7391087;19;20539;-74
2023/06/24 08:43:59;;;;;;;8.57;4.55;;;;;;;21.74;57.80;102544.22;7390281;19;20054;-72
2023/06/24 08:46:27;;;;;;;11.48;4.80;;;;;;;21.79;57.24;102547.38;7390128;19;20022;-73
2023/06/24 08:49:11;;;;;;;9.85;4.57;;;;;;;21.90;56.77;102539.13;7390482;19;20082;-72
2023/06/24 08:51:41;;;;;;;9.10;4.72;;;;;;;21.94;56.19;102534.31;7388166;19;20014;-72
2023/06/24 08:54:10;;;;;;;8.85;4.38;;;;;;;21.96;56.16;102536.84;7390207;19;20495;-74
2023/06/24 08:56:40;;;;;;;8.20;4.45;;;;;;;21.95;55.97;102533.28;7388262;19;20090;-75
2023/06/24 08:59:08;;;;;;;9.07;4.38;;;;;;;21.96;55.74;102532.28;7390209;19;20056;-75
2023/06/24 09:01:35;;;;;;;7.80;4.05;;;;;;;21.91;55.61;102537.28;7390489;19;20039;-74
2023/06/24 09:04:03;;;;;;;7.93;4.05;;;;;;;21.90;55.23;102533.75;7390310;19;20015;-75
2023/06/24 09:06:31;;;;;;;10.15;4.20;;;;;;;22.01;55.27;102538.09;7390246;19;20047;-76
2023/06/24 09:11:40;;;;;;;8.00;4.43;;;;;;;22.01;55.40;102543.50;7389582;19;20066;-74
2023/06/24 09:14:11;;;;;;;7.82;4.00;;;;;;;22.08;55.27;102541.06;7389843;19;20472;-73
2023/06/24 09:16:39;;;;;;;6.82;3.78;;;;;;;22.09;55.85;102535.56;7388395;19;20018;-74
2023/06/24 09:19:06;;;;;;;6.88;3.60;;;;;;;22.05;55.45;102535.97;7388654;19;20011;-75
2023/06/24 09:21:34;;;;;;;7.15;3.95;;;;;;;22.08;54.63;102536.53;7388668;19;20090;-73
2023/06/24 09:24:02;;;;;;;6.78;3.85;;;;;;;22.13;54.19;102533.38;7389582;19;20018;-73
2023/06/24 09:26:30;;;;;;;7.40;3.67;;;;;;;22.15;53.61;102528.75;7388471;19;20022;-75
2023/06/24 09:38:42;;;;;;;7.85;3.67;;;;;;;22.10;53.58;102512.97;7423723;19;20349;-70
2023/06/24 09:41:10;;;;;;;8.43;3.67;;;;;;;22.22;53.27;102502.03;7422801;19;20555;-69
2023/06/24 09:43:43;;;;;;;7.68;4.00;;;;;;;22.33;53.18;102505.41;7426819;19;20025;-69
2023/06/24 09:46:11;;;;;;;8.88;3.72;;;;;;;22.34;53.45;102499.00;7425502;19;20025;-65
2023/06/24 09:48:39;;;;;;;6.60;3.63;;;;;;;22.42;52.99;102500.09;7426614;19;20035;-66
2023/06/24 09:51:08;;;;;;;9.68;3.88;;;;;;;22.48;53.15;102508.47;7423534;19;20022;-65
2023/06/24 09:53:37;;;;;;;7.72;4.28;;;;;;;22.49;53.10;102504.75;7425879;19;20053;-66
2023/06/24 09:56:06;;;;;;;7.10;3.95;;;;;;;22.53;52.54;102494.53;7425613;19;20043;-66
2023/06/24 09:58:37;;;;;;;8.27;4.70;;;;;;;22.53;53.27;102500.75;7423195;19;20078;-67
2023/06/24 10:01:05;;;;;;;8.85;4.70;;;;;;;22.53;52.96;102497.22;7423756;19;20104;-67
2023/06/24 10:03:36;;;;;;;9.27;4.40;;;;;;;22.54;53.13;102485.41;7425659;19;20022;-67
2023/06/24 10:06:04;;;;;;;8.30;4.20;;;;;;;22.63;52.74;102485.38;7425085;19;20025;-66
2023/06/24 10:08:33;;;;;;;9.48;5.05;;;;;;;22.62;53.02;102480.94;7425593;19;20031;-66
2023/06/24 10:11:01;;;;;;;11.50;4.70;;;;;;;22.61;53.56;102484.66;7423576;19;20419;-69
2023/06/24 10:13:29;;;;;;;8.32;4.88;;;;;;;22.64;53.44;102478.13;7425464;19;20022;-68
2023/06/24 10:15:58;;;;;;;8.10;4.65;;;;;;;22.66;52.78;102478.81;7423365;19;20467;-69
2023/06/24 10:18:31;;;;;;;9.65;4.38;;;;;;;22.72;53.28;102482.78;7422397;19;20019;-76
2023/06/24 10:23:50;;;;;;;9.88;5.18;;;;;;;22.66;53.22;102475.25;7424663;19;19922;-75
2023/06/24 10:26:28;;;;;;;8.70;5.05;;;;;;;22.78;53.01;102466.81;7424216;19;20031;-77
2023/06/24 10:29:07;;;;;;;8.43;4.80;;;;;;;22.82;53.41;102470.91;7423940;19;20043;-75
2023/06/24 10:31:40;;;;;;;9.10;5.40;;;;;;;22.88;52.78;102461.34;7425330;19;20487;-76
2023/06/24 10:34:23;;;;;;;10.35;5.47;;;;;;;22.93;52.85;102455.50;7424175;19;20022;-80
2023/06/24 10:37:02;;;;;;;9.75;5.95;;;;;;;22.91;52.48;102452.09;7423131;19;20013;-76
2023/06/24 10:39:56;;;;;;;8.32;4.85;;;;;;;22.88;52.41;102448.69;7422855;19;20081;-76
2023/06/24 10:42:23;;;;;;;9.55;4.65;;;;;;;22.86;53.17;102441.75;7424212;19;20471;-76
2023/06/24 10:44:52;;;;;;;9.32;4.65;;;;;;;23.06;52.71;102443.34;7423715;19;20014;-75
2023/06/24 10:47:22;;;;;;;8.80;4.97;;;;;;;23.09;52.41;102445.72;7423542;19;20022;-79
2023/06/24 10:52:25;;;;;;;8.32;4.97;;;;;;;23.22;52.58;102447.19;7392819;19;20504;-76
2023/06/24 10:54:53;;;;;;;10.57;5.57;;;;;;;23.28;51.78;102449.28;7394826;19;20022;-80
2023/06/24 10:57:23;;;;;;;8.90;4.90;;;;;;;23.26;51.79;102444.03;7394349;19;20019;-79
2023/06/24 11:10:31;;;;;;;9.10;5.05;;;;;;;23.54;52.06;102439.38;7394716;19;20007;-69
2023/06/24 11:13:48;;;;;;;9.60;5.97;;;;;;;23.71;52.15;102437.66;7423990;19;20359;-67
2023/06/24 11:16:20;;;;;;;11.98;5.30;;;;;;;23.81;51.85;102432.13;7425644;19;20034;-69
2023/06/24 11:18:48;;;;;;;8.68;5.45;;;;;;;24.06;50.71;102431.28;7426301;19;20025;-68
2023/06/24 11:21:15;;;;;;;9.55;5.88;;;;;;;24.24;50.00;102430.38;7421152;19;20094;-68
2023/06/24 11:23:42;;;;;;;9.38;5.55;;;;;;;24.37;50.35;102435.31;7426495;19;20073;-67
2023/06/24 11:26:09;;;;;;;11.20;5.93;;;;;;;24.43;50.16;102437.44;7425529;19;20050;-67
2023/06/24 11:28:37;;;;;;;9.52;5.68;;;;;;;24.45;50.27;102428.09;7426202;19;20134;-68
2023/06/24 11:31:10;;;;;;;10.70;5.75;;;;;;;24.45;50.44;102424.53;7423393;19;20491;-68
2023/06/24 11:33:37;;;;;;;9.57;5.30;;;;;;;24.63;49.53;102419.88;7423151;19;20011;-68
2023/06/24 11:36:09;;;;;;;9.73;5.40;;;;;;;24.80;49.38;102420.75;7425805;19;20278;-68
2023/06/24 11:38:36;;;;;;;9.15;4.63;;;;;;;24.93;49.28;102423.84;7425482;19;20018;-67
2023/06/24 11:41:04;;;;;;;9.52;4.70;;;;;;;25.05;48.06;102424.38;7424096;19;20019;-67
2023/06/24 11:43:31;;;;;;;9.45;4.95;;;;;;;25.07;48.28;102419.63;7425224;19;20483;-68
2023/06/24 11:45:58;;;;;;;8.60;5.45;;;;;;;25.01;47.96;102421.13;7423410;19;20022;-66
2023/06/24 11:48:29;;;;;;;8.00;4.60;;;;;;;25.22;47.41;102412.56;7423744;19;20046;-67
2023/06/24 11:50:56;;;;;;;8.88;5.13;;;;;;;25.02;47.77;102416.56;7423621;19;20014;-68
2023/06/24 11:53:40;;;;;;;7.60;4.68;;;;;;;25.01;47.09;102421.13;7421713;19;20078;-69
2023/06/24 11:56:07;;;;;;;8.15;4.82;;;;;;;25.04;45.85;102418.09;7424956;19;20022;-68
2023/06/24 11:58:38;;;;;;;9.23;5.03;;;;;;;24.79;46.49;102411.78;7424799;19;20038;-68